createdAt,value
2022-09-05T00:02:36.108Z,15.03
2022-09-05T00:05:38.486Z,15.00
2022-09-05T00:08:44.224Z,14.95
2022-09-05T00:11:44.111Z,14.90
2022-09-05T00:15:18.450Z,14.84
2022-09-05T00:21:38.104Z,14.75
2022-09-05T00:24:26.771Z,14.68
2022-09-05T00:25:31.694Z,14.62
2022-09-05T00:28:31.469Z,14.57
2022-09-05T00:31:54.898Z,14.53
2022-09-05T00:35:03.815Z,14.51
2022-09-05T00:37:54.400Z,14.47
2022-09-05T00:40:47.107Z,14.44
2022-09-05T00:43:39.321Z,14.42
2022-09-05T00:46:32.900Z,14.38
2022-09-05T00:49:28.677Z,14.32
2022-09-05T00:52:25.601Z,14.24
2022-09-05T00:55:24.473Z,14.19
2022-09-05T00:58:38.422Z,14.13
2022-09-05T01:01:39.820Z,14.09
2022-09-05T01:04:41.783Z,14.05
2022-09-05T01:07:46.653Z,14.00
2022-09-05T01:10:47.545Z,13.92
2022-09-05T01:13:48.436Z,13.86
2022-09-05T01:16:49.339Z,13.81
2022-09-05T01:19:57.309Z,13.77
2022-09-05T01:23:13.024Z,13.74
2022-09-05T01:26:22.897Z,13.72
2022-09-05T01:29:25.660Z,13.70
2022-09-05T01:32:31.200Z,13.68
2022-09-05T01:35:59.199Z,13.67
2022-09-05T01:40:15.329Z,13.62
2022-09-05T01:42:31.711Z,13.59
2022-09-05T01:45:35.712Z,13.55
2022-09-05T01:48:35.447Z,13.52
2022-09-05T01:51:36.173Z,13.48
2022-09-05T01:54:38.823Z,13.46
2022-09-05T01:57:38.949Z,13.42
2022-09-05T02:00:39.165Z,13.39
2022-09-05T02:03:42.321Z,13.35
2022-09-05T02:06:55.391Z,13.32
2022-09-05T02:10:00.161Z,13.24
2022-09-05T02:13:03.517Z,13.17
2022-09-05T02:16:03.013Z,13.12
2022-09-05T02:19:01.376Z,13.06
2022-09-05T02:21:59.656Z,13.02
2022-09-05T02:24:58.521Z,12.97
2022-09-05T02:28:15.355Z,12.91
2022-09-05T02:31:19.907Z,12.84
2022-09-05T02:34:18.783Z,12.79
2022-09-05T02:37:16.466Z,12.71
2022-09-05T02:45:02.834Z,12.65
2022-09-05T02:45:05.998Z,12.59
2022-09-05T02:47:03.382Z,12.53
2022-09-05T02:51:08.255Z,12.48
2022-09-05T02:57:33.105Z,12.43
2022-09-05T02:57:35.917Z,12.36
2022-09-05T03:00:11.450Z,12.29
2022-09-05T03:03:16.862Z,12.24
2022-09-05T03:06:34.444Z,12.20
2022-09-05T03:09:38.354Z,12.19
2022-09-05T03:13:01.539Z,12.18
2022-09-05T03:16:33.636Z,12.14
2022-09-05T03:20:12.352Z,12.08
2022-09-05T03:23:36.586Z,12.01
2022-09-05T03:27:17.335Z,11.93
2022-09-05T03:30:13.276Z,11.83
2022-09-05T03:33:36.913Z,11.79
2022-09-05T03:37:11.207Z,11.74
2022-09-05T03:40:39.511Z,11.68
2022-09-05T03:44:14.650Z,11.64
2022-09-05T03:47:27.400Z,11.57
2022-09-05T03:56:20.857Z,11.54
2022-09-05T03:57:28.499Z,11.53
2022-09-05T03:58:16.445Z,11.49
2022-09-05T04:01:45.507Z,11.47
2022-09-05T04:08:18.632Z,11.45
2022-09-05T04:08:30.602Z,11.44
2022-09-05T04:11:02.947Z,11.45
2022-09-05T04:13:56.327Z,11.46
2022-09-05T04:16:55.597Z,11.47
2022-09-05T04:19:51.391Z,11.51
2022-09-05T04:23:07.207Z,11.75
2022-09-05T04:26:11.673Z,12.29
2022-09-05T04:29:15.268Z,12.93
2022-09-05T04:32:17.948Z,13.76
2022-09-05T04:35:23.459Z,14.70
2022-09-05T04:38:17.132Z,15.56
2022-09-05T04:41:10.340Z,16.30
2022-09-05T04:44:06.337Z,16.90
2022-09-05T04:47:01.903Z,17.45
2022-09-05T04:49:57.211Z,17.88
2022-09-05T04:53:02.105Z,18.27
2022-09-05T04:55:55.495Z,18.74
2022-09-05T05:00:13.002Z,19.35
2022-09-05T05:06:10.494Z,20.17
2022-09-05T05:06:16.465Z,21.00
2022-09-05T05:08:41.606Z,21.88
2022-09-05T05:17:12.905Z,22.70
2022-09-05T05:18:13.402Z,23.46
2022-09-05T05:18:39.606Z,24.24
2022-09-05T05:21:34.299Z,25.20
2022-09-05T05:24:28.996Z,25.76
2022-09-05T05:27:26.313Z,26.22
2022-09-05T05:30:28.562Z,26.75
2022-09-05T05:33:28.276Z,27.25
2022-09-05T05:36:23.644Z,27.82
2022-09-05T05:39:22.456Z,28.44
2022-09-05T05:42:20.648Z,28.99
2022-09-05T05:45:20.057Z,29.49
2022-09-05T05:48:31.385Z,29.88
2022-09-05T05:52:02.446Z,30.34
2022-09-05T05:55:09.799Z,30.95
2022-09-05T05:58:23.270Z,31.68
2022-09-05T06:04:55.191Z,32.72
2022-09-05T06:09:26.782Z,32.83
2022-09-05T06:14:58.263Z,32.60
2022-09-05T06:15:26.725Z,32.51
2022-09-05T06:18:51.924Z,32.57
2022-09-05T06:22:26.085Z,32.93
2022-09-05T06:25:53.272Z,33.51
2022-09-05T06:28:55.436Z,34.06
2022-09-05T06:32:02.389Z,34.58
2022-09-05T06:35:00.791Z,35.10
2022-09-05T06:38:05.035Z,35.56
2022-09-05T06:41:03.914Z,35.94
2022-09-05T06:44:26.133Z,36.58
2022-09-05T06:47:34.021Z,37.40
2022-09-05T06:50:28.313Z,38.06
2022-09-05T06:54:00.543Z,38.48
2022-09-05T06:57:16.518Z,39.04
2022-09-05T07:00:26.308Z,39.51
2022-09-05T07:03:35.608Z,39.82
2022-09-05T07:07:01.012Z,40.02
2022-09-05T07:09:57.505Z,40.18
2022-09-05T07:12:52.006Z,40.24
2022-09-05T07:15:52.029Z,39.99
2022-09-05T07:18:54.647Z,39.66
2022-09-05T07:21:53.091Z,39.40
2022-09-05T07:24:53.860Z,39.31
2022-09-05T07:28:29.249Z,39.19
2022-09-05T07:31:06.900Z,39.17
2022-09-05T07:34:20.692Z,39.05
2022-09-05T07:37:17.411Z,38.65
2022-09-05T07:40:26.172Z,38.64
2022-09-05T07:43:22.488Z,38.77
2022-09-05T07:46:15.998Z,38.85
2022-09-05T07:49:09.597Z,38.97
2022-09-05T07:56:49.196Z,39.02
2022-09-05T07:57:09.216Z,39.03
2022-09-05T07:58:41.456Z,39.01
2022-09-05T08:01:32.963Z,38.88
2022-09-05T08:04:32.237Z,38.87
2022-09-05T08:07:49.591Z,38.75
2022-09-05T08:11:22.187Z,38.54
2022-09-05T08:14:27.046Z,38.38
2022-09-05T08:17:13.716Z,38.28
2022-09-05T08:20:17.801Z,38.25
2022-09-05T08:23:14.359Z,38.00
2022-09-05T08:26:11.035Z,38.03
2022-09-05T08:29:11.290Z,38.02
2022-09-05T08:32:08.664Z,37.97
2022-09-05T08:35:06.249Z,37.99
2022-09-05T08:37:58.088Z,38.15
2022-09-05T08:40:59.590Z,37.94
2022-09-05T08:46:37.623Z,37.86
2022-09-05T08:47:26.351Z,37.50
2022-09-05T08:50:36.052Z,37.35
2022-09-05T08:53:46.348Z,37.20
2022-09-05T08:56:46.780Z,36.77
2022-09-05T09:00:10.307Z,36.60
2022-09-05T09:03:07.685Z,36.55
2022-09-05T09:06:29.250Z,36.70
2022-09-05T09:09:28.829Z,36.65
2022-09-05T09:12:40.894Z,36.59
2022-09-05T09:15:38.577Z,36.68
2022-09-05T09:18:39.612Z,36.87
2022-09-05T09:21:35.438Z,36.91
2022-09-05T09:24:38.733Z,37.13
2022-09-05T09:28:49.043Z,36.88
2022-09-05T09:30:59.619Z,36.38
2022-09-05T09:33:59.050Z,36.40
2022-09-05T09:37:25.439Z,36.65
2022-09-05T09:40:52.409Z,36.87
2022-09-05T09:44:07.976Z,37.02
2022-09-05T09:46:57.625Z,36.94
2022-09-05T09:50:08.284Z,36.55
2022-09-05T09:53:15.318Z,36.61
2022-09-05T09:56:32.379Z,36.83
2022-09-05T09:59:54.071Z,37.03
2022-09-05T10:05:16.607Z,36.94
2022-09-05T10:10:55.124Z,37.00
2022-09-05T10:11:25.900Z,37.04
2022-09-05T10:13:49.231Z,37.05
2022-09-05T10:16:55.117Z,36.73
2022-09-05T10:20:11.269Z,36.50
2022-09-05T10:23:32.443Z,36.36
2022-09-05T10:26:57.795Z,36.22
2022-09-05T10:30:07.299Z,35.96
2022-09-05T10:35:15.252Z,35.68
2022-09-05T10:36:36.278Z,35.41
2022-09-05T10:39:30.382Z,35.20
2022-09-05T10:42:30.440Z,34.93
2022-09-05T10:45:38.075Z,34.69
2022-09-05T10:48:31.233Z,34.39
2022-09-05T10:51:29.657Z,33.99
2022-09-05T10:54:33.235Z,33.79
2022-09-05T10:57:36.716Z,33.66
2022-09-05T11:02:23.533Z,33.38
2022-09-05T11:04:16.948Z,33.18
2022-09-05T11:07:13.645Z,32.71
2022-09-05T11:10:12.296Z,32.59
2022-09-05T11:13:12.571Z,32.58
2022-09-05T11:16:16.050Z,32.55
2022-09-05T11:19:07.467Z,32.25
2022-09-05T11:22:19.858Z,31.81
2022-09-05T11:25:36.284Z,31.26
2022-09-05T11:28:39.831Z,31.08
2022-09-05T11:36:27.596Z,31.05
2022-09-05T11:39:48.515Z,30.96
2022-09-05T11:40:04.117Z,30.73
2022-09-05T11:42:50.581Z,30.52
2022-09-05T11:45:55.876Z,30.48
2022-09-05T11:49:08.970Z,30.28
2022-09-05T11:52:21.304Z,30.08
2022-09-05T11:55:37.962Z,29.97
2022-09-05T11:58:48.495Z,29.85
2022-09-05T12:01:51.674Z,29.76
2022-09-05T12:05:47.556Z,29.63
2022-09-05T12:08:10.455Z,29.42
2022-09-05T12:11:18.139Z,29.37
2022-09-05T12:14:27.485Z,29.28
2022-09-05T12:17:35.516Z,29.19
2022-09-05T12:20:43.509Z,29.17
2022-09-05T12:24:40.770Z,29.10
2022-09-05T12:27:43.885Z,29.02
2022-09-05T12:30:36.335Z,28.97
2022-09-05T12:36:07.079Z,28.79
2022-09-05T12:40:40.364Z,28.75
2022-09-05T12:41:35.632Z,28.81
2022-09-05T12:44:36.599Z,28.83
2022-09-05T12:46:47.168Z,28.71
2022-09-05T12:49:51.891Z,28.33
2022-09-05T12:52:46.596Z,27.88
2022-09-05T12:55:41.908Z,27.36
2022-09-05T13:02:58.936Z,27.05
2022-09-05T13:03:02.752Z,26.99
2022-09-05T13:05:15.332Z,26.94
2022-09-05T13:08:05.875Z,26.83
2022-09-05T13:13:22.868Z,26.67
2022-09-05T13:14:58.323Z,26.66
2022-09-05T13:17:44.216Z,26.65
2022-09-05T13:20:36.802Z,26.51
2022-09-05T13:23:30.373Z,26.42
2022-09-05T13:26:25.508Z,26.40
2022-09-05T13:29:19.521Z,26.30
2022-09-05T13:38:08.309Z,26.27
2022-09-05T13:38:13.700Z,26.22
2022-09-05T13:38:50.275Z,26.06
2022-09-05T13:41:48.930Z,25.79
2022-09-05T13:44:46.591Z,25.68
2022-09-05T13:47:58.616Z,25.58
2022-09-05T13:50:53.007Z,25.47
2022-09-05T13:53:52.105Z,25.35
2022-09-05T13:56:53.969Z,25.20
2022-09-05T14:00:04.863Z,25.12
2022-09-05T14:03:39.425Z,25.05
2022-09-05T14:06:48.772Z,24.92
2022-09-05T14:10:03.171Z,24.87
2022-09-05T14:13:02.444Z,24.75
2022-09-05T14:15:59.145Z,24.60
2022-09-05T14:19:09.340Z,24.46
2022-09-05T14:22:02.430Z,24.38
2022-09-05T14:24:56.114Z,24.31
2022-09-05T14:27:50.859Z,24.24
2022-09-05T14:33:01.019Z,24.14
2022-09-05T14:37:42.354Z,23.96
2022-09-05T14:37:52.207Z,23.80
2022-09-05T14:40:32.233Z,23.67
2022-09-05T14:43:30.961Z,23.63
2022-09-05T14:46:21.201Z,23.59
2022-09-05T14:49:20.399Z,23.56
2022-09-05T14:51:55.447Z,23.49
2022-09-05T15:02:42.619Z,23.38
2022-09-05T15:03:00.862Z,23.31
2022-09-05T15:03:15.234Z,23.22
2022-09-05T15:05:51.576Z,23.10
2022-09-05T15:09:53.639Z,23.02
2022-09-05T15:12:27.931Z,22.90
2022-09-05T15:14:29.314Z,22.78
2022-09-05T15:17:05.816Z,22.73
2022-09-05T15:20:06.560Z,22.69
2022-09-05T15:22:42.054Z,22.65
2022-09-05T15:25:21.480Z,22.60
2022-09-05T15:27:54.545Z,22.57
2022-09-05T15:30:35.772Z,22.51
2022-09-05T15:33:25.784Z,22.41
2022-09-05T15:35:59.542Z,22.27
2022-09-05T15:38:54.950Z,22.20
2022-09-05T15:41:29.175Z,22.08
2022-09-05T15:44:09.711Z,22.00
2022-09-05T15:46:48.412Z,21.95
2022-09-05T15:49:33.005Z,21.92
2022-09-05T15:52:10.508Z,21.88
2022-09-05T15:54:50.521Z,21.81
2022-09-05T15:57:26.738Z,21.69
2022-09-05T16:00:02.413Z,21.60
2022-09-05T16:02:39.192Z,21.55
2022-09-05T16:10:34.563Z,21.45
2022-09-05T16:10:46.084Z,21.50
2022-09-05T16:14:39.566Z,21.28
2022-09-05T16:23:18.081Z,21.20
2022-09-05T16:23:30.904Z,21.08
2022-09-05T16:23:39.708Z,20.99
2022-09-05T16:26:25.058Z,20.92
2022-09-05T16:29:02.669Z,20.85
2022-09-05T16:31:41.110Z,20.77
2022-09-05T16:34:21.722Z,20.70
2022-09-05T16:37:07.919Z,20.63
2022-09-05T16:39:48.344Z,20.57
2022-09-05T16:42:46.233Z,20.49
2022-09-05T16:45:29.306Z,20.40
2022-09-05T16:48:15.257Z,20.31
2022-09-05T16:50:52.878Z,20.21
2022-09-05T16:53:34.152Z,20.11
2022-09-05T16:56:13.250Z,20.03
2022-09-05T16:58:49.443Z,19.93
2022-09-05T17:01:43.763Z,19.83
2022-09-05T17:04:20.897Z,19.74
2022-09-05T17:06:58.631Z,19.65
2022-09-05T17:09:43.412Z,19.55
2022-09-05T17:12:22.215Z,19.43
2022-09-05T17:14:57.528Z,19.32
2022-09-05T17:18:18.610Z,19.22
2022-09-05T17:20:29.933Z,19.11
2022-09-05T17:26:29.200Z,19.03
2022-09-05T17:29:25.040Z,18.85
2022-09-05T17:29:28.738Z,18.94
2022-09-05T17:32:06.069Z,18.75
2022-09-05T17:35:17.085Z,18.69
2022-09-05T17:38:15.841Z,18.66
2022-09-05T17:41:02.710Z,18.62
2022-09-05T17:43:38.737Z,18.57
2022-09-05T17:46:23.280Z,18.54
2022-09-05T17:49:19.874Z,18.52
2022-09-05T17:52:24.385Z,18.48
2022-09-05T17:54:57.694Z,18.40
2022-09-05T17:57:39.332Z,18.32
2022-09-05T18:00:48.947Z,18.25
2022-09-05T18:04:16.210Z,18.18
2022-09-05T18:07:00.346Z,18.11
2022-09-05T18:10:03.521Z,18.03
2022-09-05T18:13:13.766Z,17.95
2022-09-05T18:16:12.449Z,17.87
2022-09-05T18:19:28.266Z,17.78
2022-09-05T18:21:53.048Z,17.70
2022-09-05T18:24:33.200Z,17.66
2022-09-05T18:30:28.395Z,17.57
2022-09-05T18:33:53.594Z,17.50
2022-09-05T18:36:34.924Z,17.44
2022-09-05T18:39:37.783Z,17.37
2022-09-05T18:42:33.208Z,17.31
2022-09-05T18:45:14.613Z,17.24
2022-09-05T18:48:03.430Z,17.18
2022-09-05T18:50:43.595Z,17.14
2022-09-05T18:53:26.352Z,17.12
2022-09-05T18:56:13.401Z,17.10
2022-09-05T18:59:10.377Z,17.09
2022-09-05T19:01:52.039Z,17.08
2022-09-05T19:04:39.520Z,17.05
2022-09-05T19:07:18.456Z,17.02
2022-09-05T19:10:34.397Z,16.99
2022-09-05T19:13:05.339Z,16.97
2022-09-05T19:15:48.076Z,16.94
2022-09-05T19:18:26.387Z,16.93
2022-09-05T19:21:11.915Z,16.92
2022-09-05T19:23:50.494Z,16.90
2022-09-05T19:26:23.974Z,16.89
2022-09-05T19:36:45.805Z,16.87
2022-09-05T19:36:49.131Z,16.87
2022-09-05T19:37:23.736Z,16.84
2022-09-05T19:37:50.195Z,16.81
2022-09-05T19:47:25.442Z,16.80
2022-09-05T19:47:41.666Z,16.78
2022-09-05T19:47:48.849Z,16.75
2022-09-05T19:49:13.271Z,16.74
2022-09-05T19:51:46.767Z,16.73
2022-09-05T19:54:29.459Z,16.69
2022-09-05T19:57:04.253Z,16.67
2022-09-05T19:59:39.296Z,16.65
2022-09-05T20:02:20.203Z,16.61
2022-09-05T20:04:55.524Z,16.58
2022-09-05T20:07:29.382Z,16.56
2022-09-05T20:10:04.004Z,16.53
2022-09-05T20:12:38.676Z,16.50
2022-09-05T20:15:27.940Z,16.46
2022-09-05T20:18:23.487Z,16.40
2022-09-05T20:20:56.935Z,16.35
2022-09-05T20:23:31.444Z,16.29
2022-09-05T20:26:04.360Z,16.22
2022-09-05T20:28:38.083Z,16.15
2022-09-05T20:31:16.229Z,16.07
2022-09-05T20:33:52.151Z,16.00
2022-09-05T20:40:32.393Z,15.91
2022-09-05T20:43:20.297Z,15.77
2022-09-05T20:43:22.840Z,15.83
2022-09-05T20:45:48.458Z,15.69
2022-09-05T20:54:12.870Z,15.61
2022-09-05T20:54:28.650Z,15.54
2022-09-05T20:54:41.202Z,15.48
2022-09-05T20:57:19.421Z,15.42
2022-09-05T20:59:51.598Z,15.36
2022-09-05T21:02:26.608Z,15.31
2022-09-05T21:05:06.969Z,15.26
2022-09-05T21:08:07.145Z,15.20
2022-09-05T21:10:55.706Z,15.13
2022-09-05T21:13:30.536Z,15.08
2022-09-05T21:16:04.407Z,15.04
2022-09-05T21:18:42.150Z,14.99
2022-09-05T21:21:28.903Z,14.93
2022-09-05T21:24:16.308Z,14.90
2022-09-05T21:26:50.398Z,14.86
2022-09-05T21:29:32.913Z,14.80
2022-09-05T21:32:10.658Z,14.75
2022-09-05T21:34:48.435Z,14.72
2022-09-05T21:37:21.663Z,14.67
2022-09-05T21:40:00.481Z,14.65
2022-09-05T21:42:51.769Z,14.61
2022-09-05T21:47:42.894Z,14.56
2022-09-05T21:48:18.460Z,14.50
2022-09-05T21:50:52.727Z,14.47
2022-09-05T21:56:17.646Z,14.44
2022-09-05T21:59:32.587Z,14.40
2022-09-05T21:59:36.649Z,14.36
2022-09-05T22:02:10.619Z,14.31
2022-09-05T22:04:42.500Z,14.28
2022-09-05T22:07:31.695Z,14.23
2022-09-05T22:10:07.794Z,14.17
2022-09-05T22:12:40.365Z,14.12
2022-09-05T22:15:27.328Z,14.08
2022-09-05T22:18:16.418Z,14.02
2022-09-05T22:21:32.269Z,13.95
2022-09-05T22:23:50.189Z,13.90
2022-09-05T22:26:23.065Z,13.86
2022-09-05T22:28:56.023Z,13.81
2022-09-05T22:31:28.378Z,13.76
2022-09-05T22:34:00.445Z,13.72
2022-09-05T22:36:32.869Z,13.69
2022-09-05T22:39:05.302Z,13.67
2022-09-05T22:41:37.201Z,13.65
2022-09-05T22:44:09.032Z,13.63
2022-09-05T22:46:40.924Z,13.62
2022-09-05T22:49:12.959Z,13.60
2022-09-05T22:51:44.831Z,13.59
2022-09-05T22:54:17.269Z,13.57
2022-09-05T22:56:49.890Z,13.56
2022-09-05T22:59:21.711Z,13.55
2022-09-05T23:01:54.095Z,13.54
2022-09-05T23:04:26.334Z,13.53
2022-09-05T23:07:02.075Z,13.50
2022-09-05T23:09:35.356Z,13.46
2022-09-05T23:12:08.093Z,13.43
2022-09-05T23:14:39.909Z,13.40
2022-09-05T23:17:13.893Z,13.35
2022-09-05T23:19:45.745Z,13.28
2022-09-05T23:22:17.795Z,13.24
2022-09-05T23:24:49.905Z,13.19
2022-09-05T23:27:21.816Z,13.13
2022-09-05T23:29:53.667Z,13.07
2022-09-05T23:32:25.466Z,13.01
2022-09-05T23:34:57.258Z,12.94
2022-09-05T23:37:29.380Z,12.89
2022-09-05T23:40:01.275Z,12.83
2022-09-05T23:42:33.286Z,12.78
2022-09-05T23:45:06.057Z,12.70
2022-09-05T23:47:39.018Z,12.64
2022-09-05T23:50:13.078Z,12.60
2022-09-05T23:52:46.227Z,12.55
2022-09-05T23:55:19.888Z,12.51
2022-09-05T23:57:57.257Z,12.48
